createdAt,value
2023-03-27T00:02:26.909Z,16.45
2023-03-27T00:04:54.720Z,16.08
2023-03-27T00:07:22.150Z,15.60
2023-03-27T00:09:49.033Z,15.68
2023-03-27T00:12:15.959Z,15.88
2023-03-27T00:14:42.825Z,15.83
2023-03-27T00:17:11.189Z,15.83
2023-03-27T00:23:20.170Z,15.04
2023-03-27T00:25:50.516Z,15.18
2023-03-27T00:32:00.967Z,15.65
2023-03-27T00:34:29.199Z,15.93
2023-03-27T00:36:56.692Z,16.43
2023-03-27T00:39:23.969Z,16.27
2023-03-27T00:41:51.029Z,16.27
2023-03-27T00:44:34.361Z,15.90
2023-03-27T00:47:03.164Z,16.25
2023-03-27T00:53:16.290Z,16.08
2023-03-27T00:55:47.329Z,15.55
2023-03-27T00:58:18.710Z,15.28
2023-03-27T01:00:45.703Z,15.93
2023-03-27T01:03:12.891Z,16.12
2023-03-27T01:05:40.124Z,15.57
2023-03-27T01:08:07.872Z,16.08
2023-03-27T01:11:12.987Z,15.69
2023-03-27T01:13:58.560Z,15.82
2023-03-27T01:17:10.004Z,15.23
2023-03-27T01:20:04.592Z,15.89
2023-03-27T01:23:01.950Z,15.72
2023-03-27T01:25:53.327Z,15.64
2023-03-27T01:28:56.299Z,14.33
2023-03-27T01:32:09.826Z,14.54
2023-03-27T01:35:14.002Z,13.91
2023-03-27T01:44:17.683Z,14.26
2023-03-27T01:46:57.304Z,13.08
2023-03-27T01:49:31.303Z,12.84
2023-03-27T01:52:02.024Z,12.73
2023-03-27T01:54:32.950Z,12.59
2023-03-27T01:57:22.482Z,12.90
2023-03-27T01:59:53.990Z,13.09
2023-03-27T02:02:27.288Z,13.17
2023-03-27T02:05:05.794Z,13.43
2023-03-27T02:14:08.957Z,11.77
2023-03-27T02:16:41.442Z,12.31
2023-03-27T02:19:20.981Z,12.08
2023-03-27T02:21:48.297Z,13.42
2023-03-27T02:24:18.014Z,13.56
2023-03-27T02:26:45.610Z,13.61
2023-03-27T02:29:37.644Z,13.81
2023-03-27T02:32:19.891Z,13.24
2023-03-27T02:35:03.285Z,13.08
2023-03-27T02:37:48.266Z,12.02
2023-03-27T02:40:29.307Z,12.05
2023-03-27T02:43:23.684Z,12.22
2023-03-27T02:45:55.050Z,12.00
2023-03-27T02:52:13.108Z,12.44
2023-03-27T02:54:44.815Z,13.19
2023-03-27T02:57:16.033Z,13.62
2023-03-27T02:59:46.481Z,13.30
2023-03-27T03:02:18.117Z,13.63
2023-03-27T03:04:48.884Z,14.13
2023-03-27T03:07:16.291Z,14.99
2023-03-27T03:13:24.128Z,15.41
2023-03-27T03:15:50.974Z,14.22
2023-03-27T03:18:18.541Z,13.17
2023-03-27T03:20:46.252Z,13.48
2023-03-27T03:23:13.141Z,13.95
2023-03-27T03:25:40.006Z,12.86
2023-03-27T03:32:04.466Z,12.29
2023-03-27T03:34:33.466Z,12.64
2023-03-27T03:37:00.693Z,12.36
2023-03-27T03:39:27.828Z,13.16
2023-03-27T03:41:54.718Z,12.74
2023-03-27T03:44:21.645Z,13.02
2023-03-27T03:46:48.467Z,12.69
2023-03-27T03:52:43.436Z,14.23
2023-03-27T03:55:12.143Z,14.46
2023-03-27T04:02:03.684Z,14.86
2023-03-27T04:04:32.204Z,14.33
2023-03-27T04:06:59.198Z,15.11
2023-03-27T04:09:26.070Z,14.76
2023-03-27T04:11:52.906Z,14.80
2023-03-27T04:14:19.803Z,14.58
2023-03-27T04:16:46.964Z,14.02
2023-03-27T04:23:21.407Z,12.11
2023-03-27T04:25:48.394Z,11.37
2023-03-27T04:28:18.074Z,10.23
2023-03-27T04:30:45.606Z,9.92
2023-03-27T04:33:18.625Z,10.58
2023-03-27T04:35:46.626Z,10.73
2023-03-27T04:38:38.274Z,10.85
2023-03-27T04:41:05.726Z,10.34
2023-03-27T04:43:32.649Z,10.00
2023-03-27T04:45:59.510Z,10.61
2023-03-27T04:52:07.142Z,11.37
2023-03-27T04:54:34.632Z,12.61
2023-03-27T04:57:02.303Z,13.35
2023-03-27T04:59:32.150Z,13.81
2023-03-27T05:01:59.956Z,13.08
2023-03-27T05:04:26.867Z,13.14
2023-03-27T05:06:56.928Z,12.74
2023-03-27T05:12:47.753Z,13.03
2023-03-27T05:15:16.221Z,13.41
2023-03-27T05:17:44.331Z,12.59
2023-03-27T05:20:14.803Z,12.09
2023-03-27T05:22:42.415Z,12.82
2023-03-27T05:25:09.922Z,11.73
2023-03-27T05:27:36.816Z,11.75
2023-03-27T05:30:04.352Z,12.15
2023-03-27T05:32:31.225Z,11.45
2023-03-27T05:34:58.415Z,11.91
2023-03-27T05:37:26.365Z,11.82
2023-03-27T05:39:54.366Z,12.15
2023-03-27T05:42:21.233Z,11.07
2023-03-27T05:44:48.097Z,11.48
2023-03-27T05:47:15.488Z,11.22
2023-03-27T05:53:27.937Z,11.65
2023-03-27T05:56:03.198Z,11.19
2023-03-27T06:02:11.770Z,11.34
2023-03-27T06:04:38.679Z,11.11
2023-03-27T06:07:05.550Z,11.10
2023-03-27T06:12:46.443Z,11.21
2023-03-27T06:15:15.732Z,10.65
2023-03-27T06:21:54.291Z,10.58
2023-03-27T06:24:22.288Z,10.31
2023-03-27T06:26:49.155Z,10.69
2023-03-27T06:32:59.078Z,10.59
2023-03-27T06:35:27.977Z,10.02
2023-03-27T06:38:04.810Z,10.76
2023-03-27T06:40:32.890Z,9.90
2023-03-27T06:43:04.969Z,10.23
2023-03-27T06:45:34.646Z,10.26
2023-03-27T06:48:13.598Z,9.86
2023-03-27T06:50:47.769Z,9.78
2023-03-27T06:53:26.448Z,9.64
2023-03-27T06:55:53.999Z,9.89
2023-03-27T06:58:22.074Z,9.62
2023-03-27T07:00:49.748Z,9.81
2023-03-27T07:03:18.063Z,9.70
2023-03-27T07:05:45.629Z,9.69
2023-03-27T07:10:45.817Z,9.77
2023-03-27T07:13:16.758Z,9.72
2023-03-27T07:15:43.804Z,9.40
2023-03-27T07:18:11.133Z,9.54
2023-03-27T07:20:38.233Z,9.80
2023-03-27T07:23:05.381Z,10.17
2023-03-27T07:25:37.421Z,9.62
2023-03-27T07:28:06.422Z,9.28
2023-03-27T07:30:33.836Z,9.19
2023-03-27T07:33:00.806Z,9.23
2023-03-27T07:35:27.804Z,9.49
2023-03-27T07:37:55.057Z,9.46
2023-03-27T07:40:29.298Z,9.79
2023-03-27T07:43:07.350Z,9.63
2023-03-27T07:45:35.103Z,10.11
2023-03-27T07:48:08.775Z,9.90
2023-03-27T07:50:36.161Z,9.94
2023-03-27T07:53:04.108Z,10.18
2023-03-27T07:55:31.453Z,10.26
2023-03-27T07:58:02.492Z,10.36
2023-03-27T08:00:31.630Z,10.11
2023-03-27T08:03:08.978Z,10.31
2023-03-27T08:05:37.246Z,10.29
2023-03-27T08:08:05.170Z,10.18
2023-03-27T08:10:32.166Z,10.05
2023-03-27T08:12:59.078Z,10.39
2023-03-27T08:15:26.027Z,10.21
2023-03-27T08:17:55.476Z,10.15
2023-03-27T08:20:24.209Z,10.06
2023-03-27T08:22:54.252Z,10.42
2023-03-27T08:25:24.496Z,10.25
2023-03-27T08:27:51.389Z,10.33
2023-03-27T08:30:19.222Z,9.99
2023-03-27T08:32:46.527Z,10.28
2023-03-27T08:35:13.767Z,10.19
2023-03-27T08:37:41.543Z,10.13
2023-03-27T08:40:19.255Z,10.24
2023-03-27T08:42:47.095Z,10.20
2023-03-27T08:45:29.142Z,10.17
2023-03-27T08:48:04.478Z,9.74
2023-03-27T08:50:53.444Z,9.76
2023-03-27T08:53:42.252Z,10.23
2023-03-27T09:07:04.667Z,10.04
2023-03-27T09:09:39.632Z,10.48
2023-03-27T09:12:43.991Z,10.32
2023-03-27T09:15:26.410Z,10.40
2023-03-27T09:18:31.930Z,10.69
2023-03-27T09:21:09.880Z,10.71
2023-03-27T09:23:45.590Z,10.92
2023-03-27T09:26:13.286Z,10.88
2023-03-27T09:29:00.336Z,11.27
2023-03-27T09:31:32.171Z,11.11
2023-03-27T09:34:03.612Z,10.53
2023-03-27T09:36:30.685Z,11.38
2023-03-27T09:39:07.796Z,11.05
2023-03-27T09:41:52.818Z,11.00
2023-03-27T09:44:35.982Z,10.77
2023-03-27T09:47:46.848Z,10.68
2023-03-27T09:50:25.669Z,10.98
2023-03-27T09:53:16.366Z,10.96
2023-03-27T09:55:53.215Z,10.76
2023-03-27T09:58:29.316Z,10.07
2023-03-27T10:01:29.574Z,10.61
2023-03-27T10:03:59.743Z,10.76
2023-03-27T10:06:29.714Z,11.11
2023-03-27T10:09:07.244Z,10.82
2023-03-27T10:11:36.443Z,10.19
2023-03-27T10:14:13.465Z,10.97
2023-03-27T10:16:41.770Z,10.32
2023-03-27T10:19:24.428Z,10.84
2023-03-27T10:21:51.520Z,10.77
2023-03-27T10:24:36.070Z,10.48
2023-03-27T10:27:21.999Z,10.79
2023-03-27T10:29:48.980Z,11.10
2023-03-27T10:32:16.055Z,11.16
2023-03-27T10:34:57.452Z,10.30
2023-03-27T10:37:32.567Z,10.09
2023-03-27T10:40:02.330Z,10.13
2023-03-27T10:42:32.009Z,10.90
2023-03-27T10:44:59.150Z,10.78
2023-03-27T10:47:28.496Z,10.98
2023-03-27T10:50:21.994Z,10.42
2023-03-27T10:53:24.605Z,10.70
2023-03-27T10:55:57.341Z,10.52
2023-03-27T10:58:34.076Z,10.49
2023-03-27T11:01:21.552Z,11.08
2023-03-27T11:04:00.460Z,10.48
2023-03-27T11:06:31.870Z,10.71
2023-03-27T11:09:06.045Z,10.71
2023-03-27T11:11:39.030Z,10.53
2023-03-27T11:14:12.132Z,10.33
2023-03-27T11:16:50.844Z,10.11
2023-03-27T11:19:45.217Z,10.38
2023-03-27T11:22:15.168Z,10.50
2023-03-27T11:24:52.492Z,10.13
2023-03-27T11:27:38.009Z,9.75
2023-03-27T11:30:08.447Z,9.99
2023-03-27T11:33:05.517Z,9.86
2023-03-27T11:35:39.530Z,10.30
2023-03-27T11:38:21.236Z,10.14
2023-03-27T11:40:49.687Z,9.92
2023-03-27T11:43:18.230Z,9.47
2023-03-27T11:45:53.382Z,9.19
2023-03-27T11:48:42.001Z,8.46
2023-03-27T11:51:21.072Z,8.11
2023-03-27T11:54:03.664Z,7.48
2023-03-27T11:56:43.815Z,7.96
2023-03-27T11:59:20.788Z,7.97
2023-03-27T12:02:02.596Z,7.36
2023-03-27T12:04:48.698Z,7.05
2023-03-27T12:07:36.052Z,7.24
2023-03-27T12:10:13.932Z,7.12
2023-03-27T12:12:54.557Z,6.77
2023-03-27T12:15:52.661Z,6.92
2023-03-27T12:18:37.611Z,6.76
2023-03-27T12:21:05.624Z,6.89
2023-03-27T12:23:47.370Z,5.99
2023-03-27T12:26:28.501Z,6.10
2023-03-27T12:29:02.019Z,6.14
2023-03-27T12:32:04.052Z,5.96
2023-03-27T12:34:37.935Z,5.72
2023-03-27T12:37:06.098Z,5.90
2023-03-27T12:39:55.111Z,5.67
2023-03-27T12:42:51.919Z,5.60
2023-03-27T12:45:24.773Z,5.13
2023-03-27T12:48:11.937Z,5.36
2023-03-27T12:50:47.106Z,5.58
2023-03-27T12:53:37.022Z,5.59
2023-03-27T12:56:19.557Z,5.31
2023-03-27T12:58:51.624Z,5.67
2023-03-27T13:01:48.987Z,5.44
2023-03-27T13:04:37.853Z,5.31
2023-03-27T13:07:10.667Z,4.71
2023-03-27T13:10:07.425Z,4.87
2023-03-27T13:13:04.594Z,4.83
2023-03-27T13:15:39.475Z,4.88
2023-03-27T13:18:40.274Z,4.62
2023-03-27T13:21:40.215Z,4.55
2023-03-27T13:24:32.831Z,4.45
2023-03-27T13:27:34.540Z,4.24
2023-03-27T13:30:01.626Z,4.27
2023-03-27T13:32:37.406Z,4.15
2023-03-27T13:35:19.757Z,4.20
2023-03-27T13:37:49.526Z,4.16
2023-03-27T13:40:27.478Z,4.04
2023-03-27T13:43:02.766Z,3.89
2023-03-27T13:45:38.884Z,3.96
2023-03-27T13:48:40.617Z,4.13
2023-03-27T13:51:27.509Z,3.80
2023-03-27T13:54:13.054Z,3.76
2023-03-27T13:57:05.905Z,4.25
2023-03-27T13:59:48.017Z,4.11
2023-03-27T14:02:14.979Z,4.21
2023-03-27T14:05:00.711Z,3.94
2023-03-27T14:07:41.390Z,3.59
2023-03-27T14:10:19.347Z,3.37
2023-03-27T14:13:09.241Z,3.68
2023-03-27T14:15:48.114Z,3.80
2023-03-27T14:18:45.881Z,3.42
2023-03-27T14:21:27.631Z,3.38
2023-03-27T14:24:10.937Z,3.74
2023-03-27T14:26:41.959Z,4.06
2023-03-27T14:29:10.153Z,3.46
2023-03-27T14:31:38.201Z,3.66
2023-03-27T14:34:15.831Z,3.74
2023-03-27T14:36:47.626Z,3.79
2023-03-27T14:39:20.730Z,3.34
2023-03-27T14:41:56.342Z,3.61
2023-03-27T14:44:29.740Z,3.46
2023-03-27T14:47:04.002Z,3.91
2023-03-27T14:49:47.024Z,3.35
2023-03-27T14:52:22.152Z,3.71
2023-03-27T14:54:54.991Z,3.32
2023-03-27T14:57:23.026Z,3.29
2023-03-27T14:59:49.981Z,3.37
2023-03-27T15:02:22.898Z,3.12
2023-03-27T15:04:50.488Z,3.22
2023-03-27T15:07:19.917Z,3.52
2023-03-27T15:09:47.542Z,3.90
2023-03-27T15:12:14.368Z,3.74
2023-03-27T15:14:41.046Z,4.16
2023-03-27T15:17:15.051Z,3.85
2023-03-27T15:19:45.658Z,4.62
2023-03-27T15:22:33.949Z,4.57
2023-03-27T15:25:35.591Z,4.78
2023-03-27T15:28:16.760Z,4.59
2023-03-27T15:30:46.918Z,4.28
2023-03-27T15:33:22.624Z,4.78
2023-03-27T15:35:52.700Z,4.74
2023-03-27T15:38:29.097Z,5.22
2023-03-27T15:41:17.884Z,4.37
2023-03-27T15:43:44.839Z,4.88
2023-03-27T15:46:17.320Z,4.69
2023-03-27T15:48:46.106Z,4.71
2023-03-27T15:51:19.210Z,4.50
2023-03-27T15:53:53.721Z,4.64
2023-03-27T15:56:26.531Z,4.51
2023-03-27T15:58:55.163Z,4.73
2023-03-27T16:01:26.456Z,4.90
2023-03-27T16:03:55.360Z,4.82
2023-03-27T16:06:34.367Z,4.72
2023-03-27T16:09:01.438Z,4.68
2023-03-27T16:11:48.908Z,4.19
2023-03-27T16:14:36.790Z,4.31
2023-03-27T16:17:14.821Z,4.56
2023-03-27T16:19:53.263Z,4.16
2023-03-27T16:22:23.810Z,4.70
2023-03-27T16:24:51.637Z,4.55
2023-03-27T16:27:22.980Z,4.28
2023-03-27T16:29:51.157Z,4.75
2023-03-27T16:32:19.267Z,4.36
2023-03-27T16:34:51.597Z,4.18
2023-03-27T16:37:20.102Z,4.39
2023-03-27T16:39:47.107Z,4.10
2023-03-27T16:42:17.027Z,4.31
2023-03-27T16:44:44.725Z,3.99
2023-03-27T16:47:13.091Z,4.48
2023-03-27T16:49:40.252Z,4.08
2023-03-27T16:52:07.176Z,4.38
2023-03-27T16:54:34.013Z,4.03
2023-03-27T16:57:01.036Z,4.45
2023-03-27T16:59:28.509Z,4.17
2023-03-27T17:01:55.997Z,4.44
2023-03-27T17:04:23.198Z,4.43
2023-03-27T17:06:50.128Z,4.21
2023-03-27T17:09:16.989Z,4.24
2023-03-27T17:11:43.940Z,4.22
2023-03-27T17:14:10.830Z,4.25
2023-03-27T17:16:38.543Z,4.31
2023-03-27T17:19:05.509Z,4.34
2023-03-27T17:21:32.457Z,4.01
2023-03-27T17:24:00.862Z,4.17
2023-03-27T17:26:33.109Z,4.33
2023-03-27T17:29:00.346Z,4.23
2023-03-27T17:31:29.469Z,4.56
2023-03-27T17:33:57.549Z,4.43
2023-03-27T17:36:39.638Z,4.18
2023-03-27T17:39:08.313Z,4.20
2023-03-27T17:41:35.146Z,3.91
2023-03-27T17:44:01.804Z,4.34
2023-03-27T17:46:28.722Z,4.30
2023-03-27T17:48:57.274Z,4.57
2023-03-27T17:51:24.166Z,4.30
2023-03-27T17:53:51.038Z,4.29
2023-03-27T17:56:17.913Z,4.59
2023-03-27T17:58:50.203Z,4.68
2023-03-27T18:01:18.995Z,4.05
2023-03-27T18:03:46.523Z,4.30
2023-03-27T18:06:14.927Z,4.48
2023-03-27T18:08:41.820Z,4.40
2023-03-27T18:11:13.020Z,4.38
2023-03-27T18:13:40.159Z,4.22
2023-03-27T18:16:11.354Z,4.25
2023-03-27T18:18:39.296Z,4.39
2023-03-27T18:21:06.981Z,4.86
2023-03-27T18:23:35.254Z,4.54
2023-03-27T18:26:08.248Z,5.02
2023-03-27T18:28:35.947Z,4.78
2023-03-27T18:31:05.564Z,4.71
2023-03-27T18:33:32.691Z,4.79
2023-03-27T18:35:59.940Z,4.71
2023-03-27T18:38:27.850Z,4.79
2023-03-27T18:40:59.985Z,4.44
2023-03-27T18:43:27.078Z,4.68
2023-03-27T18:46:02.326Z,4.66
2023-03-27T18:48:32.273Z,4.70
2023-03-27T18:51:01.683Z,5.02
2023-03-27T18:53:28.916Z,5.02
2023-03-27T18:55:58.614Z,4.72
2023-03-27T18:58:29.330Z,4.36
2023-03-27T19:00:57.062Z,4.69
2023-03-27T19:03:26.140Z,4.71
2023-03-27T19:05:53.707Z,4.53
2023-03-27T19:08:21.989Z,4.91
2023-03-27T19:10:49.181Z,4.72
2023-03-27T19:13:16.262Z,4.85
2023-03-27T19:15:43.219Z,4.18
2023-03-27T19:18:10.289Z,4.04
2023-03-27T19:20:37.123Z,4.20
2023-03-27T19:23:04.165Z,3.90
2023-03-27T19:25:34.169Z,4.06
2023-03-27T19:28:04.883Z,4.01
2023-03-27T19:30:32.720Z,3.90
2023-03-27T19:32:59.651Z,4.10
2023-03-27T19:35:26.924Z,4.21
2023-03-27T19:37:54.644Z,4.10
2023-03-27T19:40:21.831Z,4.05
2023-03-27T19:42:49.019Z,3.87
2023-03-27T19:45:16.384Z,3.74
2023-03-27T19:47:43.431Z,3.71
2023-03-27T19:50:10.621Z,4.09
2023-03-27T19:52:37.798Z,3.89
2023-03-27T19:55:06.827Z,3.64
2023-03-27T19:57:33.712Z,4.16
2023-03-27T20:00:00.573Z,3.71
2023-03-27T20:02:27.711Z,3.79
2023-03-27T20:04:54.699Z,4.05
2023-03-27T20:07:21.360Z,3.71
2023-03-27T20:09:48.292Z,3.48
2023-03-27T20:12:15.169Z,3.72
2023-03-27T20:14:42.645Z,3.59
2023-03-27T20:17:27.662Z,3.50
2023-03-27T20:19:55.714Z,3.57
2023-03-27T20:22:22.630Z,3.93
2023-03-27T20:24:49.632Z,4.03
2023-03-27T20:27:19.997Z,4.14
2023-03-27T20:29:47.537Z,3.89
2023-03-27T20:32:14.671Z,3.92
2023-03-27T20:34:41.575Z,3.71
2023-03-27T20:37:12.109Z,3.84
2023-03-27T20:39:47.342Z,3.63
2023-03-27T20:42:16.075Z,3.62
2023-03-27T20:44:47.093Z,3.99
2023-03-27T20:47:15.401Z,3.63
2023-03-27T20:49:45.992Z,3.71
2023-03-27T20:52:18.075Z,3.95
2023-03-27T20:54:44.988Z,3.24
2023-03-27T20:57:11.994Z,3.62
2023-03-27T20:59:39.046Z,3.57
2023-03-27T21:02:06.213Z,3.49
2023-03-27T21:04:33.196Z,3.93
2023-03-27T21:07:00.131Z,3.82
2023-03-27T21:09:27.590Z,3.12
2023-03-27T21:11:55.801Z,3.37
2023-03-27T21:14:23.317Z,3.16
2023-03-27T21:16:50.515Z,3.51
2023-03-27T21:19:17.980Z,3.54
2023-03-27T21:21:45.290Z,3.71
2023-03-27T21:24:13.403Z,3.78
2023-03-27T21:26:40.668Z,3.63
2023-03-27T21:29:10.850Z,3.93
2023-03-27T21:31:39.047Z,3.67
2023-03-27T21:34:06.115Z,3.85
2023-03-27T21:36:33.166Z,3.73
2023-03-27T21:39:00.208Z,3.76
2023-03-27T21:41:27.451Z,3.29
2023-03-27T21:43:54.306Z,3.38
2023-03-27T21:46:21.156Z,3.74
2023-03-27T21:48:49.559Z,3.81
2023-03-27T21:51:16.421Z,3.67
2023-03-27T21:53:43.296Z,3.36
2023-03-27T21:56:10.228Z,3.44
2023-03-27T21:58:37.117Z,4.06
2023-03-27T22:01:04.506Z,3.66
2023-03-27T22:03:31.367Z,4.01
2023-03-27T22:06:12.631Z,3.53
2023-03-27T22:08:41.663Z,3.81
2023-03-27T22:11:09.735Z,3.64
2023-03-27T22:13:37.637Z,3.57
2023-03-27T22:16:12.428Z,3.89
2023-03-27T22:18:39.391Z,3.90
2023-03-27T22:21:22.841Z,3.73
2023-03-27T22:23:53.378Z,4.17
2023-03-27T22:26:23.505Z,3.95
2023-03-27T22:28:52.559Z,3.83
2023-03-27T22:31:23.025Z,4.29
2023-03-27T22:33:50.608Z,3.94
2023-03-27T22:36:19.243Z,4.07
2023-03-27T22:38:46.678Z,3.56
2023-03-27T22:41:14.425Z,3.88
2023-03-27T22:43:41.982Z,3.63
2023-03-27T22:46:13.927Z,3.60
2023-03-27T22:48:41.135Z,3.94
2023-03-27T22:51:08.988Z,3.94
2023-03-27T22:53:36.811Z,3.90
2023-03-27T22:56:05.000Z,3.73
2023-03-27T22:58:32.380Z,3.54
2023-03-27T23:00:59.598Z,3.40
2023-03-27T23:03:27.907Z,3.12
2023-03-27T23:05:55.473Z,3.57
2023-03-27T23:08:29.855Z,3.40
2023-03-27T23:11:04.733Z,3.06
2023-03-27T23:13:32.818Z,3.04
2023-03-27T23:15:59.922Z,2.96
2023-03-27T23:18:27.326Z,3.14
2023-03-27T23:20:59.554Z,3.55
2023-03-27T23:23:28.006Z,3.24
2023-03-27T23:25:55.639Z,3.40
2023-03-27T23:28:22.581Z,3.40
2023-03-27T23:30:59.182Z,2.95
2023-03-27T23:33:27.402Z,3.19
2023-03-27T23:36:00.244Z,3.28
2023-03-27T23:38:27.519Z,3.53
2023-03-27T23:40:56.174Z,3.33
2023-03-27T23:43:23.428Z,3.58
2023-03-27T23:45:50.521Z,3.19
2023-03-27T23:48:18.052Z,3.58
2023-03-27T23:50:45.979Z,3.07
2023-03-27T23:53:12.852Z,3.30
2023-03-27T23:55:40.030Z,3.15
2023-03-27T23:58:06.996Z,3.51
